sensor_id;sensor_type;location;lat;lon;timestamp;pressure;altitude;pressure_sealevel;temperature;humidity
6464;BME280;3265;42.694;23.282;2022-08-03T00:00:13;94754.66;;;20.26;81.54
6464;BME280;3265;42.694;23.282;2022-08-03T00:02:40;94753.13;;;20.15;81.59
6464;BME280;3265;42.694;23.282;2022-08-03T00:05:07;94754.78;;;20.06;82.37
6464;BME280;3265;42.694;23.282;2022-08-03T00:07:35;94750.88;;;19.98;80.96
6464;BME280;3265;42.694;23.282;2022-08-03T00:10:03;94739.84;;;19.91;79.35
6464;BME280;3265;42.694;23.282;2022-08-03T00:12:30;94747.19;;;19.94;79.87
6464;BME280;3265;42.694;23.282;2022-08-03T00:14:57;94750.88;;;19.98;82.95
6464;BME280;3265;42.694;23.282;2022-08-03T00:17:24;94750.28;;;20.06;83.05
6464;BME280;3265;42.694;23.282;2022-08-03T00:19:51;94744.78;;;20.03;82.99
6464;BME280;3265;42.694;23.282;2022-08-03T00:22:17;94744.06;;;19.92;82.97
6464;BME280;3265;42.694;23.282;2022-08-03T00:24:45;94752.59;;;19.79;82.79
6464;BME280;3265;42.694;23.282;2022-08-03T00:27:12;94747.59;;;19.72;84.58
6464;BME280;3265;42.694;23.282;2022-08-03T00:29:39;94751.28;;;19.76;84.65
6464;BME280;3265;42.694;23.282;2022-08-03T00:32:06;94753.59;;;19.83;84.42
6464;BME280;3265;42.694;23.282;2022-08-03T00:34:33;94754.09;;;19.90;82.82
6464;BME280;3265;42.694;23.282;2022-08-03T00:36:59;94759.34;;;19.95;82.70
6464;BME280;3265;42.694;23.282;2022-08-03T00:39:26;94746.09;;;20.05;81.13
6464;BME280;3265;42.694;23.282;2022-08-03T00:41:54;94742.66;;;20.05;78.65
6464;BME280;3265;42.694;23.282;2022-08-03T00:44:21;94749.28;;;19.97;77.45
6464;BME280;3265;42.694;23.282;2022-08-03T00:46:48;94749.03;;;19.99;77.72
6464;BME280;3265;42.694;23.282;2022-08-03T00:49:15;94742.16;;;20.03;80.21
6464;BME280;3265;42.694;23.282;2022-08-03T00:51:42;94743.72;;;20.04;81.76
6464;BME280;3265;42.694;23.282;2022-08-03T00:54:09;94747.69;;;20.01;81.92
6464;BME280;3265;42.694;23.282;2022-08-03T00:56:36;94754.78;;;20.06;81.46
6464;BME280;3265;42.694;23.282;2022-08-03T00:59:04;94742.91;;;20.08;80.10
6464;BME280;3265;42.694;23.282;2022-08-03T01:01:32;94752.38;;;20.14;82.11
6464;BME280;3265;42.694;23.282;2022-08-03T01:03:58;94736.59;;;20.04;82.21
6464;BME280;3265;42.694;23.282;2022-08-03T01:06:33;94744.72;;;20.13;81.40
6464;BME280;3265;42.694;23.282;2022-08-03T01:09:06;94748.19;;;20.03;80.74
6464;BME280;3265;42.694;23.282;2022-08-03T01:11:38;94742.22;;;19.93;81.07
6464;BME280;3265;42.694;23.282;2022-08-03T01:14:10;94741.69;;;19.91;80.84
6464;BME280;3265;42.694;23.282;2022-08-03T01:16:43;94737.78;;;19.83;81.52
6464;BME280;3265;42.694;23.282;2022-08-03T01:19:44;94738.56;;;19.83;81.78
6464;BME280;3265;42.694;23.282;2022-08-03T01:22:24;94727.78;;;19.75;82.84
6464;BME280;3265;42.694;23.282;2022-08-03T01:25:02;94729.13;;;19.72;83.18
6464;BME280;3265;42.694;23.282;2022-08-03T01:27:45;94736.22;;;19.77;83.54
6464;BME280;3265;42.694;23.282;2022-08-03T01:30:20;94732.81;;;19.76;83.39
6464;BME280;3265;42.694;23.282;2022-08-03T01:32:54;94736.22;;;19.77;83.60
6464;BME280;3265;42.694;23.282;2022-08-03T01:35:26;94746.31;;;19.70;84.11
6464;BME280;3265;42.694;23.282;2022-08-03T01:37:57;94734.44;;;19.67;82.46
6464;BME280;3265;42.694;23.282;2022-08-03T01:40:27;94733.63;;;19.72;82.05
6464;BME280;3265;42.694;23.282;2022-08-03T01:42:59;94742.53;;;19.81;81.04
6464;BME280;3265;42.694;23.282;2022-08-03T01:45:29;94737.56;;;19.79;81.34
6464;BME280;3265;42.694;23.282;2022-08-03T01:47:58;94738.09;;;19.76;80.87
6464;BME280;3265;42.694;23.282;2022-08-03T01:50:26;94743.09;;;19.78;81.13
6464;BME280;3265;42.694;23.282;2022-08-03T01:52:55;94737.56;;;19.79;80.60
6464;BME280;3265;42.694;23.282;2022-08-03T01:55:25;94738.09;;;19.76;80.69
6464;BME280;3265;42.694;23.282;2022-08-03T01:57:54;94738.91;;;19.72;81.15
6464;BME280;3265;42.694;23.282;2022-08-03T02:00:22;94746.56;;;19.68;81.40
6464;BME280;3265;42.694;23.282;2022-08-03T02:02:53;94735.28;;;19.58;81.33
6464;BME280;3265;42.694;23.282;2022-08-03T02:05:21;94747.94;;;19.61;81.58
6464;BME280;3265;42.694;23.282;2022-08-03T02:07:49;94739.72;;;19.67;81.61
6464;BME280;3265;42.694;23.282;2022-08-03T02:10:18;94742.94;;;19.59;81.55
6464;BME280;3265;42.694;23.282;2022-08-03T02:12:48;94743.75;;;19.50;81.40
6464;BME280;3265;42.694;23.282;2022-08-03T02:15:15;94739.78;;;19.52;81.77
6464;BME280;3265;42.694;23.282;2022-08-03T02:17:45;94742.19;;;19.44;82.53
6464;BME280;3265;42.694;23.282;2022-08-03T02:20:15;94740.38;;;19.39;82.08
6464;BME280;3265;42.694;23.282;2022-08-03T02:22:43;94739.03;;;19.37;82.29
6464;BME280;3265;42.694;23.282;2022-08-03T02:25:12;94742.22;;;19.39;82.32
6464;BME280;3265;42.694;23.282;2022-08-03T02:27:44;94732.19;;;19.36;82.39
6464;BME280;3265;42.694;23.282;2022-08-03T02:30:12;94738.25;;;19.31;83.25
6464;BME280;3265;42.694;23.282;2022-08-03T02:32:47;94733.81;;;19.26;83.55
6464;BME280;3265;42.694;23.282;2022-08-03T02:35:18;94741.16;;;19.45;83.50
6464;BME280;3265;42.694;23.282;2022-08-03T02:37:51;94732.19;;;19.41;83.10
6464;BME280;3265;42.694;23.282;2022-08-03T02:40:19;94735.34;;;19.38;82.10
6464;BME280;3265;42.694;23.282;2022-08-03T02:42:52;94734.31;;;19.28;82.47
6464;BME280;3265;42.694;23.282;2022-08-03T02:45:23;94723.84;;;19.18;83.56
6464;BME280;3265;42.694;23.282;2022-08-03T02:47:55;94731.75;;;19.18;85.41
6464;BME280;3265;42.694;23.282;2022-08-03T02:50:24;94726.47;;;19.13;85.43
6464;BME280;3265;42.694;23.282;2022-08-03T02:52:54;94726.50;;;19.08;86.44
6464;BME280;3265;42.694;23.282;2022-08-03T02:55:24;94728.59;;;19.11;86.79
6464;BME280;3265;42.694;23.282;2022-08-03T02:57:52;94731.75;;;19.08;87.51
6464;BME280;3265;42.694;23.282;2022-08-03T03:00:21;94728.31;;;19.08;87.14
6464;BME280;3265;42.694;23.282;2022-08-03T03:02:49;94725.22;;;18.91;87.38
6464;BME280;3265;42.694;23.282;2022-08-03T03:05:17;94737.06;;;18.98;87.76
6464;BME280;3265;42.694;23.282;2022-08-03T03:07:45;94741.78;;;19.06;87.33
6464;BME280;3265;42.694;23.282;2022-08-03T03:10:12;94746.00;;;19.07;87.13
6464;BME280;3265;42.694;23.282;2022-08-03T03:12:40;94751.78;;;19.09;87.11
6464;BME280;3265;42.694;23.282;2022-08-03T03:15:08;94747.31;;;19.10;86.67
6464;BME280;3265;42.694;23.282;2022-08-03T03:17:36;94755.50;;;19.03;86.10
6464;BME280;3265;42.694;23.282;2022-08-03T03:20:05;94762.34;;;19.04;84.97
6464;BME280;3265;42.694;23.282;2022-08-03T03:22:33;94764.97;;;19.04;84.91
6464;BME280;3265;42.694;23.282;2022-08-03T03:25:02;94767.06;;;19.02;84.72
6464;BME280;3265;42.694;23.282;2022-08-03T03:27:32;94767.06;;;19.02;84.91
6464;BME280;3265;42.694;23.282;2022-08-03T03:29:59;94754.22;;;18.96;84.84
6464;BME280;3265;42.694;23.282;2022-08-03T03:32:27;94774.19;;;18.97;85.07
6464;BME280;3265;42.694;23.282;2022-08-03T03:34:55;94768.66;;;18.93;85.32
6464;BME280;3265;42.694;23.282;2022-08-03T03:37:23;94768.44;;;18.85;85.21
6464;BME280;3265;42.694;23.282;2022-08-03T03:39:52;94775.03;;;18.87;85.60
6464;BME280;3265;42.694;23.282;2022-08-03T03:42:20;94780.84;;;18.84;85.82
6464;BME280;3265;42.694;23.282;2022-08-03T03:44:47;94782.13;;;18.87;85.68
6464;BME280;3265;42.694;23.282;2022-08-03T03:47:14;94779.22;;;18.88;85.64
6464;BME280;3265;42.694;23.282;2022-08-03T03:49:41;94781.31;;;18.91;85.44
6464;BME280;3265;42.694;23.282;2022-08-03T03:52:08;94780.81;;;18.89;84.78
6464;BME280;3265;42.694;23.282;2022-08-03T03:54:39;94781.06;;;18.93;85.28
6464;BME280;3265;42.694;23.282;2022-08-03T03:57:06;94787.13;;;18.98;84.89
6464;BME280;3265;42.694;23.282;2022-08-03T03:59:38;94784.50;;;18.98;85.69
6464;BME280;3265;42.694;23.282;2022-08-03T04:02:06;94788.97;;;18.98;85.18
6464;BME280;3265;42.694;23.282;2022-08-03T04:04:34;94782.91;;;18.97;85.40
6464;BME280;3265;42.694;23.282;2022-08-03T04:07:19;94783.69;;;18.98;85.86
6464;BME280;3265;42.694;23.282;2022-08-03T04:10:09;94776.31;;;18.95;85.72
6464;BME280;3265;42.694;23.282;2022-08-03T04:12:56;94777.38;;;18.99;85.28
6464;BME280;3265;42.694;23.282;2022-08-03T04:15:27;94771.84;;;19.00;85.69
6464;BME280;3265;42.694;23.282;2022-08-03T04:17:56;94780.78;;;19.09;84.99
6464;BME280;3265;42.694;23.282;2022-08-03T04:20:27;94780.25;;;19.12;84.51
6464;BME280;3265;42.694;23.282;2022-08-03T04:22:56;94782.06;;;19.17;84.50
6464;BME280;3265;42.694;23.282;2022-08-03T04:25:27;94781.81;;;19.18;84.94
6464;BME280;3265;42.694;23.282;2022-08-03T04:27:56;94781.25;;;19.16;84.68
6464;BME280;3265;42.694;23.282;2022-08-03T04:30:28;94768.38;;;19.15;84.35
6464;BME280;3265;42.694;23.282;2022-08-03T04:32:56;94782.84;;;19.22;84.37
6464;BME280;3265;42.694;23.282;2022-08-03T04:35:24;94778.63;;;19.26;84.07
6464;BME280;3265;42.694;23.282;2022-08-03T04:37:55;94779.91;;;19.29;84.44
6464;BME280;3265;42.694;23.282;2022-08-03T04:40:29;94785.19;;;19.29;84.51
6464;BME280;3265;42.694;23.282;2022-08-03T04:42:57;94779.91;;;19.34;83.96
6464;BME280;3265;42.694;23.282;2022-08-03T04:45:27;94794.13;;;19.43;83.67
6464;BME280;3265;42.694;23.282;2022-08-03T04:47:55;94790.72;;;19.48;83.53
6464;BME280;3265;42.694;23.282;2022-08-03T04:50:23;94781.72;;;19.49;83.52
6464;BME280;3265;42.694;23.282;2022-08-03T04:52:51;94798.81;;;19.61;83.36
6464;BME280;3265;42.694;23.282;2022-08-03T04:55:25;94792.22;;;19.64;82.88
6464;BME280;3265;42.694;23.282;2022-08-03T04:57:52;94806.41;;;19.73;81.80
6464;BME280;3265;42.694;23.282;2022-08-03T05:00:19;94805.63;;;19.72;82.05
6464;BME280;3265;42.694;23.282;2022-08-03T05:02:52;94809.31;;;19.76;81.14
6464;BME280;3265;42.694;23.282;2022-08-03T05:05:20;94806.91;;;19.80;81.52
6464;BME280;3265;42.694;23.282;2022-08-03T05:07:47;94812.16;;;19.80;82.13
6464;BME280;3265;42.694;23.282;2022-08-03T05:10:14;94811.13;;;19.81;81.52
6464;BME280;3265;42.694;23.282;2022-08-03T05:12:42;94801.63;;;19.80;82.35
6464;BME280;3265;42.694;23.282;2022-08-03T05:15:09;94812.16;;;19.85;82.08
6464;BME280;3265;42.694;23.282;2022-08-03T05:17:36;94817.66;;;19.89;81.23
6464;BME280;3265;42.694;23.282;2022-08-03T05:20:05;94820.03;;;19.95;80.42
6464;BME280;3265;42.694;23.282;2022-08-03T05:22:33;94827.69;;;19.97;80.51
6464;BME280;3265;42.694;23.282;2022-08-03T05:25:00;94828.69;;;20.01;80.53
6464;BME280;3265;42.694;23.282;2022-08-03T05:27:27;94834.22;;;20.04;80.26
6464;BME280;3265;42.694;23.282;2022-08-03T05:29:54;94828.16;;;20.04;81.08
6464;BME280;3265;42.694;23.282;2022-08-03T05:32:21;94826.88;;;19.96;81.87
6464;BME280;3265;42.694;23.282;2022-08-03T05:34:47;94830.28;;;20.02;81.31
6464;BME280;3265;42.694;23.282;2022-08-03T05:37:16;94835.81;;;20.00;81.58
6464;BME280;3265;42.694;23.282;2022-08-03T05:39:43;94838.25;;;19.97;82.60
6464;BME280;3265;42.694;23.282;2022-08-03T05:42:09;94842.66;;;20.06;83.00
6464;BME280;3265;42.694;23.282;2022-08-03T05:44:36;94844.50;;;20.11;81.91
6464;BME280;3265;42.694;23.282;2022-08-03T05:47:04;94844.19;;;20.17;82.46
6464;BME280;3265;42.694;23.282;2022-08-03T05:49:30;94844.13;;;20.32;81.48
6464;BME280;3265;42.694;23.282;2022-08-03T05:51:57;94845.66;;;20.77;78.91
6464;BME280;3265;42.694;23.282;2022-08-03T05:54:25;94850.00;;;20.97;77.45
6464;BME280;3265;42.694;23.282;2022-08-03T05:56:52;94843.59;;;21.08;75.76
6464;BME280;3265;42.694;23.282;2022-08-03T05:59:19;94847.03;;;21.09;75.01
6464;BME280;3265;42.694;23.282;2022-08-03T06:01:46;94842.97;;;21.16;75.92
6464;BME280;3265;42.694;23.282;2022-08-03T06:04:13;94841.81;;;21.27;75.29
6464;BME280;3265;42.694;23.282;2022-08-03T06:06:39;94847.31;;;21.31;73.87
6464;BME280;3265;42.694;23.282;2022-08-03T06:09:07;94845.53;;;21.26;72.80
6464;BME280;3265;42.694;23.282;2022-08-03T06:11:36;94847.38;;;21.26;72.90
6464;BME280;3265;42.694;23.282;2022-08-03T06:14:03;94855.31;;;21.26;72.57
6464;BME280;3265;42.694;23.282;2022-08-03T06:16:30;94846.53;;;21.30;72.29
6464;BME280;3265;42.694;23.282;2022-08-03T06:18:58;94848.00;;;21.41;72.24
6464;BME280;3265;42.694;23.282;2022-08-03T06:21:24;94840.25;;;21.74;71.86
6464;BME280;3265;42.694;23.282;2022-08-03T06:23:51;94852.84;;;22.05;71.51
6464;BME280;3265;42.694;23.282;2022-08-03T06:26:18;94849.94;;;22.26;69.55
6464;BME280;3265;42.694;23.282;2022-08-03T06:28:46;94853.97;;;22.42;69.03
6464;BME280;3265;42.694;23.282;2022-08-03T06:31:13;94847.81;;;22.46;67.57
6464;BME280;3265;42.694;23.282;2022-08-03T06:33:40;94856.75;;;22.32;67.28
6464;BME280;3265;42.694;23.282;2022-08-03T06:36:07;94847.44;;;22.16;68.19
6464;BME280;3265;42.694;23.282;2022-08-03T06:38:34;94848.28;;;22.11;68.24
6464;BME280;3265;42.694;23.282;2022-08-03T06:41:01;94833.97;;;22.12;67.77
6464;BME280;3265;42.694;23.282;2022-08-03T06:43:28;94849.50;;;22.37;67.95
6464;BME280;3265;42.694;23.282;2022-08-03T06:45:56;94844.38;;;22.27;67.45
6464;BME280;3265;42.694;23.282;2022-08-03T06:48:25;94841.16;;;22.30;67.64
6464;BME280;3265;42.694;23.282;2022-08-03T06:50:52;94843.88;;;22.44;67.88
6464;BME280;3265;42.694;23.282;2022-08-03T06:53:19;94841.06;;;22.54;66.91
6464;BME280;3265;42.694;23.282;2022-08-03T06:55:46;94845.44;;;22.63;66.61
6464;BME280;3265;42.694;23.282;2022-08-03T06:58:13;94845.09;;;22.70;66.48
6464;BME280;3265;42.694;23.282;2022-08-03T07:00:39;94847.31;;;22.82;66.08
6464;BME280;3265;42.694;23.282;2022-08-03T07:03:10;94843.31;;;22.98;65.50
6464;BME280;3265;42.694;23.282;2022-08-03T07:05:37;94841.94;;;23.00;65.42
6464;BME280;3265;42.694;23.282;2022-08-03T07:08:05;94840.44;;;22.94;65.64
6464;BME280;3265;42.694;23.282;2022-08-03T07:10:33;94838.81;;;22.98;65.63
6464;BME280;3265;42.694;23.282;2022-08-03T07:13:13;94845.59;;;23.04;64.66
6464;BME280;3265;42.694;23.282;2022-08-03T07:15:40;94841.72;;;23.29;64.32
6464;BME280;3265;42.694;23.282;2022-08-03T07:18:07;94839.81;;;23.48;63.73
6464;BME280;3265;42.694;23.282;2022-08-03T07:20:35;94842.56;;;23.43;63.61
6464;BME280;3265;42.694;23.282;2022-08-03T07:23:02;94845.84;;;23.35;63.01
6464;BME280;3265;42.694;23.282;2022-08-03T07:25:29;94845.56;;;23.23;63.76
6464;BME280;3265;42.694;23.282;2022-08-03T07:27:56;94848.28;;;23.18;65.57
6464;BME280;3265;42.694;23.282;2022-08-03T07:30:23;94845.56;;;23.23;65.88
6464;BME280;3265;42.694;23.282;2022-08-03T07:32:50;94847.53;;;23.31;66.71
6464;BME280;3265;42.694;23.282;2022-08-03T07:35:16;94842.38;;;23.40;64.70
6464;BME280;3265;42.694;23.282;2022-08-03T07:37:45;94847.47;;;23.50;64.15
6464;BME280;3265;42.694;23.282;2022-08-03T07:40:12;94849.84;;;23.51;62.28
6464;BME280;3265;42.694;23.282;2022-08-03T07:42:38;94851.91;;;23.54;62.96
6464;BME280;3265;42.694;23.282;2022-08-03T07:45:07;94852.19;;;23.53;62.16
6464;BME280;3265;42.694;23.282;2022-08-03T07:47:34;94847.88;;;23.57;60.51
6464;BME280;3265;42.694;23.282;2022-08-03T07:50:01;94851.59;;;23.56;60.66
6464;BME280;3265;42.694;23.282;2022-08-03T07:52:27;94855.06;;;23.56;61.12
6464;BME280;3265;42.694;23.282;2022-08-03T07:55:14;94851.63;;;23.97;61.31
6464;BME280;3265;42.694;23.282;2022-08-03T07:57:41;94850.22;;;24.26;60.40
6464;BME280;3265;42.694;23.282;2022-08-03T08:00:13;94848.22;;;24.46;59.25
6464;BME280;3265;42.694;23.282;2022-08-03T08:02:41;94858.63;;;24.56;58.19
6464;BME280;3265;42.694;23.282;2022-08-03T08:05:09;94859.59;;;24.60;58.55
6464;BME280;3265;42.694;23.282;2022-08-03T08:07:37;94858.63;;;24.56;56.36
6464;BME280;3265;42.694;23.282;2022-08-03T08:10:05;94859.09;;;24.58;56.92
6464;BME280;3265;42.694;23.282;2022-08-03T08:12:34;94863.50;;;24.62;56.39
6464;BME280;3265;42.694;23.282;2022-08-03T08:15:02;94860.44;;;24.69;55.26
6464;BME280;3265;42.694;23.282;2022-08-03T08:17:29;94865.16;;;24.72;54.90
6464;BME280;3265;42.694;23.282;2022-08-03T08:19:56;94863.91;;;24.69;51.66
6464;BME280;3265;42.694;23.282;2022-08-03T08:22:23;94866.47;;;24.61;51.44
6464;BME280;3265;42.694;23.282;2022-08-03T08:24:50;94862.25;;;24.60;52.37
6464;BME280;3265;42.694;23.282;2022-08-03T08:27:16;94859.97;;;24.67;53.97
6464;BME280;3265;42.694;23.282;2022-08-03T08:29:45;94857.66;;;24.88;54.23
6464;BME280;3265;42.694;23.282;2022-08-03T08:32:11;94858.44;;;25.10;54.26
6464;BME280;3265;42.694;23.282;2022-08-03T08:34:40;94864.28;;;25.21;52.52
6464;BME280;3265;42.694;23.282;2022-08-03T08:37:07;94858.63;;;25.22;52.86
6464;BME280;3265;42.694;23.282;2022-08-03T08:39:34;94852.72;;;25.25;53.03
6464;BME280;3265;42.694;23.282;2022-08-03T08:42:02;94852.81;;;25.42;53.47
6464;BME280;3265;42.694;23.282;2022-08-03T08:44:29;94853.22;;;25.58;52.08
6464;BME280;3265;42.694;23.282;2022-08-03T08:47:00;94848.59;;;25.72;50.57
6464;BME280;3265;42.694;23.282;2022-08-03T08:49:28;94852.06;;;25.81;49.17
6464;BME280;3265;42.694;23.282;2022-08-03T08:51:56;94850.06;;;25.87;48.34
6464;BME280;3265;42.694;23.282;2022-08-03T08:54:24;94841.16;;;25.91;49.38
6464;BME280;3265;42.694;23.282;2022-08-03T08:56:53;94843.97;;;26.04;49.70
6464;BME280;3265;42.694;23.282;2022-08-03T08:59:24;94829.91;;;26.12;49.18
6464;BME280;3265;42.694;23.282;2022-08-03T09:01:57;94835.59;;;26.19;48.14
6464;BME280;3265;42.694;23.282;2022-08-03T09:04:24;94834.28;;;26.08;48.61
6464;BME280;3265;42.694;23.282;2022-08-03T09:06:51;94831.47;;;26.13;49.27
6464;BME280;3265;42.694;23.282;2022-08-03T09:09:18;94831.50;;;26.30;49.65
6464;BME280;3265;42.694;23.282;2022-08-03T09:11:46;94837.19;;;26.54;48.65
6464;BME280;3265;42.694;23.282;2022-08-03T09:14:13;94834.19;;;26.73;47.78
6464;BME280;3265;42.694;23.282;2022-08-03T09:16:54;94833.44;;;26.89;47.94
6464;BME280;3265;42.694;23.282;2022-08-03T09:19:24;94835.00;;;26.90;48.24
6464;BME280;3265;42.694;23.282;2022-08-03T09:22:07;94838.63;;;26.86;46.71
6464;BME280;3265;42.694;23.282;2022-08-03T09:24:34;94833.47;;;26.81;46.04
6464;BME280;3265;42.694;23.282;2022-08-03T09:27:01;94837.22;;;26.88;46.43
6464;BME280;3265;42.694;23.282;2022-08-03T09:29:31;94831.38;;;27.03;47.00
6464;BME280;3265;42.694;23.282;2022-08-03T09:32:00;94837.81;;;27.11;46.56
6464;BME280;3265;42.694;23.282;2022-08-03T09:34:28;94823.00;;;27.22;45.37
6464;BME280;3265;42.694;23.282;2022-08-03T09:36:56;94830.38;;;27.34;45.43
6464;BME280;3265;42.694;23.282;2022-08-03T09:39:24;94842.16;;;27.41;43.64
6464;BME280;3265;42.694;23.282;2022-08-03T09:42:04;94835.41;;;27.44;44.13
6464;BME280;3265;42.694;23.282;2022-08-03T09:44:33;94832.41;;;27.37;43.11
6464;BME280;3265;42.694;23.282;2022-08-03T09:47:01;94833.19;;;27.37;43.24
6464;BME280;3265;42.694;23.282;2022-08-03T09:49:29;94829.44;;;27.47;43.55
6464;BME280;3265;42.694;23.282;2022-08-03T09:51:56;94839.19;;;27.81;44.96
6464;BME280;3265;42.694;23.282;2022-08-03T09:54:26;94829.34;;;28.02;43.90
6464;BME280;3265;42.694;23.282;2022-08-03T09:56:53;94834.19;;;28.08;42.92
6464;BME280;3265;42.694;23.282;2022-08-03T09:59:25;94824.72;;;28.20;42.37
6464;BME280;3265;42.694;23.282;2022-08-03T10:01:52;94830.94;;;28.24;43.45
6464;BME280;3265;42.694;23.282;2022-08-03T10:04:20;94831.47;;;28.38;43.14
6464;BME280;3265;42.694;23.282;2022-08-03T10:07:03;94828.97;;;28.62;43.15
6464;BME280;3265;42.694;23.282;2022-08-03T10:09:30;94814.16;;;28.85;42.91
6464;BME280;3265;42.694;23.282;2022-08-03T10:12:05;94818.56;;;29.02;41.89
6464;BME280;3265;42.694;23.282;2022-08-03T10:14:33;94813.25;;;29.14;41.35
6464;BME280;3265;42.694;23.282;2022-08-03T10:17:02;94817.88;;;29.25;40.82
6464;BME280;3265;42.694;23.282;2022-08-03T10:19:29;94822.00;;;29.35;41.30
6464;BME280;3265;42.694;23.282;2022-08-03T10:22:02;94818.03;;;29.53;40.64
6464;BME280;3265;42.694;23.282;2022-08-03T10:24:30;94820.59;;;29.62;39.85
6464;BME280;3265;42.694;23.282;2022-08-03T10:27:02;94815.63;;;29.85;40.68
6464;BME280;3265;42.694;23.282;2022-08-03T10:29:32;94807.56;;;29.97;40.42
6464;BME280;3265;42.694;23.282;2022-08-03T10:32:03;94809.47;;;30.08;39.77
6464;BME280;3265;42.694;23.282;2022-08-03T10:34:33;94798.31;;;30.06;40.16
6464;BME280;3265;42.694;23.282;2022-08-03T10:37:08;94814.16;;;29.99;39.83
6464;BME280;3265;42.694;23.282;2022-08-03T10:39:36;94809.38;;;29.93;39.56
6464;BME280;3265;42.694;23.282;2022-08-03T10:42:04;94807.13;;;29.83;40.01
6464;BME280;3265;42.694;23.282;2022-08-03T10:44:35;94803.19;;;29.80;39.88
6464;BME280;3265;42.694;23.282;2022-08-03T10:47:03;94809.22;;;29.77;40.50
6464;BME280;3265;42.694;23.282;2022-08-03T10:49:30;94810.50;;;29.92;40.12
6464;BME280;3265;42.694;23.282;2022-08-03T10:51:58;94811.78;;;30.22;39.78
6464;BME280;3265;42.694;23.282;2022-08-03T10:54:41;94817.50;;;30.32;38.69
6464;BME280;3265;42.694;23.282;2022-08-03T10:57:46;94811.78;;;30.46;38.53
6464;BME280;3265;42.694;23.282;2022-08-03T11:00:14;94810.63;;;30.59;37.84
6464;BME280;3265;42.694;23.282;2022-08-03T11:03:03;94803.59;;;30.55;37.74
6464;BME280;3265;42.694;23.282;2022-08-03T11:05:32;94804.28;;;30.79;37.73
6464;BME280;3265;42.694;23.282;2022-08-03T11:08:23;94800.22;;;30.98;37.33
6464;BME280;3265;42.694;23.282;2022-08-03T11:10:53;94794.25;;;31.04;36.79
6464;BME280;3265;42.694;23.282;2022-08-03T11:13:22;94797.09;;;30.96;36.82
6464;BME280;3265;42.694;23.282;2022-08-03T11:15:52;94796.75;;;30.97;36.97
6464;BME280;3265;42.694;23.282;2022-08-03T11:18:19;94793.16;;;31.05;37.23
6464;BME280;3265;42.694;23.282;2022-08-03T11:20:48;94786.56;;;31.18;36.77
6464;BME280;3265;42.694;23.282;2022-08-03T11:23:17;94779.38;;;31.38;36.63
6464;BME280;3265;42.694;23.282;2022-08-03T11:26:11;94784.72;;;31.50;36.46
6464;BME280;3265;42.694;23.282;2022-08-03T11:28:38;94748.34;;;31.25;36.24
6464;BME280;3265;42.694;23.282;2022-08-03T11:31:43;94783.41;;;31.60;36.23
6464;BME280;3265;42.694;23.282;2022-08-03T11:34:12;94782.63;;;31.59;35.63
6464;BME280;3265;42.694;23.282;2022-08-03T11:37:17;94782.25;;;31.45;35.00
6464;BME280;3265;42.694;23.282;2022-08-03T11:39:45;94779.34;;;31.50;35.57
6464;BME280;3265;42.694;23.282;2022-08-03T11:42:43;94771.53;;;31.61;36.68
6464;BME280;3265;42.694;23.282;2022-08-03T11:45:12;94774.72;;;31.82;36.12
6464;BME280;3265;42.694;23.282;2022-08-03T11:47:40;94777.47;;;32.01;35.64
6464;BME280;3265;42.694;23.282;2022-08-03T11:50:08;94779.25;;;31.62;35.89
6464;BME280;3265;42.694;23.282;2022-08-03T11:52:38;94774.19;;;31.45;36.32
6464;BME280;3265;42.694;23.282;2022-08-03T11:55:10;94775.53;;;31.51;35.70
6464;BME280;3265;42.694;23.282;2022-08-03T11:57:37;94773.28;;;31.69;35.24
6464;BME280;3265;42.694;23.282;2022-08-03T12:00:24;94779.63;;;31.95;35.17
6464;BME280;3265;42.694;23.282;2022-08-03T12:02:56;94784.78;;;31.85;35.54
6464;BME280;3265;42.694;23.282;2022-08-03T12:05:42;94771.16;;;31.93;36.14
6464;BME280;3265;42.694;23.282;2022-08-03T12:08:10;94771.22;;;31.97;35.72
6464;BME280;3265;42.694;23.282;2022-08-03T12:10:39;94760.53;;;32.16;35.62
6464;BME280;3265;42.694;23.282;2022-08-03T12:13:06;94774.16;;;32.42;34.91
6464;BME280;3265;42.694;23.282;2022-08-03T12:15:36;94766.00;;;32.39;35.68
6464;BME280;3265;42.694;23.282;2022-08-03T12:18:13;94759.22;;;32.45;34.77
6464;BME280;3265;42.694;23.282;2022-08-03T12:20:40;94757.38;;;32.49;35.37
6464;BME280;3265;42.694;23.282;2022-08-03T12:23:08;94768.44;;;32.44;34.52
6464;BME280;3265;42.694;23.282;2022-08-03T12:25:36;94763.53;;;32.30;35.91
6464;BME280;3265;42.694;23.282;2022-08-03T12:28:21;94763.78;;;32.06;35.29
6464;BME280;3265;42.694;23.282;2022-08-03T12:30:50;94753.56;;;31.80;36.03
6464;BME280;3265;42.694;23.282;2022-08-03T12:33:22;94763.91;;;31.63;36.38
6464;BME280;3265;42.694;23.282;2022-08-03T12:36:00;94753.72;;;31.40;36.84
6464;BME280;3265;42.694;23.282;2022-08-03T12:38:29;94757.56;;;31.39;36.87
6464;BME280;3265;42.694;23.282;2022-08-03T12:40:58;94756.88;;;31.42;36.17
6464;BME280;3265;42.694;23.282;2022-08-03T12:43:25;94755.47;;;31.33;37.13
6464;BME280;3265;42.694;23.282;2022-08-03T12:46:08;94754.41;;;31.37;37.89
6464;BME280;3265;42.694;23.282;2022-08-03T12:48:35;94746.63;;;31.64;37.12
6464;BME280;3265;42.694;23.282;2022-08-03T12:51:08;94748.44;;;31.91;36.79
6464;BME280;3265;42.694;23.282;2022-08-03T12:53:36;94754.88;;;32.21;36.57
6464;BME280;3265;42.694;23.282;2022-08-03T12:56:04;94742.78;;;32.12;35.11
6464;BME280;3265;42.694;23.282;2022-08-03T12:58:32;94748.81;;;31.58;36.12
6464;BME280;3265;42.694;23.282;2022-08-03T13:00:59;94737.94;;;31.08;37.05
6464;BME280;3265;42.694;23.282;2022-08-03T13:03:28;94731.66;;;30.88;38.53
6464;BME280;3265;42.694;23.282;2022-08-03T13:05:54;94722.44;;;30.73;38.17
6464;BME280;3265;42.694;23.282;2022-08-03T13:08:23;94724.81;;;30.63;38.57
6464;BME280;3265;42.694;23.282;2022-08-03T13:10:50;94730.50;;;30.46;38.76
6464;BME280;3265;42.694;23.282;2022-08-03T13:13:17;94718.78;;;30.26;39.35
6464;BME280;3265;42.694;23.282;2022-08-03T13:15:45;94716.34;;;30.21;39.39
6464;BME280;3265;42.694;23.282;2022-08-03T13:18:11;94714.47;;;30.21;40.27
6464;BME280;3265;42.694;23.282;2022-08-03T13:20:41;94718.56;;;30.31;40.12
6464;BME280;3265;42.694;23.282;2022-08-03T13:23:08;94717.75;;;30.30;40.55